createdAt,value
2018-06-01T00:00:41.543Z,13.93
2018-06-01T00:03:09.861Z,13.80
2018-06-01T00:05:37.396Z,15.63
2018-06-01T00:08:04.952Z,15.30
2018-06-01T00:10:32.877Z,15.43
2018-06-01T00:13:00.469Z,15.30
2018-06-01T00:15:28.769Z,15.77
2018-06-01T00:17:56.310Z,15.07
2018-06-01T00:20:23.849Z,16.50
2018-06-01T00:22:51.395Z,15.50
2018-06-01T00:25:18.917Z,16.33
2018-06-01T00:27:46.455Z,20.27
2018-06-01T00:30:13.973Z,20.17
2018-06-01T00:32:41.516Z,16.27
2018-06-01T00:35:09.069Z,14.70
2018-06-01T00:37:36.608Z,16.23
2018-06-01T00:40:04.157Z,14.57
2018-06-01T00:42:31.680Z,14.30
2018-06-01T00:44:59.980Z,15.37
2018-06-01T00:47:27.505Z,14.97
2018-06-01T00:49:55.834Z,14.63
2018-06-01T00:52:23.379Z,14.07
2018-06-01T00:55:17.362Z,17.03
2018-06-01T00:57:44.912Z,15.07
2018-06-01T01:00:12.501Z,17.20
2018-06-01T01:02:40.027Z,14.63
2018-06-01T01:05:07.568Z,15.50
2018-06-01T01:07:35.097Z,14.33
2018-06-01T01:10:02.669Z,13.17
2018-06-01T01:12:30.973Z,13.87
2018-06-01T01:14:58.520Z,15.60
2018-06-01T01:17:26.053Z,14.63
2018-06-01T01:19:53.596Z,14.40
2018-06-01T01:22:21.130Z,15.17
2018-06-01T01:24:48.689Z,14.83
2018-06-01T01:27:16.278Z,16.67
2018-06-01T01:29:43.817Z,15.93
2018-06-01T01:32:11.346Z,17.07
2018-06-01T01:34:38.886Z,14.53
2018-06-01T01:37:06.409Z,14.93
2018-06-01T01:39:33.943Z,14.37
2018-06-01T01:42:01.460Z,13.80
2018-06-01T01:44:29.005Z,14.73
2018-06-01T01:46:56.540Z,15.40
2018-06-01T01:49:24.123Z,14.40
2018-06-01T01:51:52.458Z,16.20
2018-06-01T01:54:20.007Z,14.80
2018-06-01T01:56:47.544Z,14.93
2018-06-01T01:59:15.102Z,15.50
2018-06-01T02:01:42.717Z,15.13
2018-06-01T02:04:10.277Z,15.50
2018-06-01T02:06:37.837Z,14.90
2018-06-01T02:09:06.145Z,16.40
2018-06-01T02:11:33.697Z,14.63
2018-06-01T02:14:01.229Z,15.40
2018-06-01T02:16:28.781Z,16.23
2018-06-01T02:18:56.306Z,15.23
2018-06-01T02:21:23.849Z,15.40
2018-06-01T02:23:51.381Z,15.93
2018-06-01T02:26:18.926Z,14.70
2018-06-01T02:28:46.449Z,15.13
2018-06-01T02:31:14.006Z,14.47
2018-06-01T02:33:41.544Z,13.93
2018-06-01T02:36:09.102Z,14.60
2018-06-01T02:38:36.638Z,15.50
2018-06-01T02:41:04.192Z,16.23
2018-06-01T02:43:31.739Z,16.53
2018-06-01T02:46:00.049Z,16.23
2018-06-01T02:48:27.999Z,17.53
2018-06-01T02:50:55.551Z,15.20
2018-06-01T02:53:23.091Z,14.90
2018-06-01T02:55:50.636Z,14.70
2018-06-01T02:58:18.176Z,15.13
2018-06-01T03:00:45.729Z,17.07
2018-06-01T03:03:13.260Z,20.10
2018-06-01T03:05:40.804Z,16.77
2018-06-01T03:08:08.362Z,15.37
2018-06-01T03:10:35.897Z,16.53
2018-06-01T03:13:04.218Z,18.03
2018-06-01T03:15:31.790Z,16.93
2018-06-01T03:18:00.112Z,16.40
2018-06-01T03:20:27.647Z,16.07
2018-06-01T03:22:55.189Z,16.87
2018-06-01T03:25:22.717Z,16.13
2018-06-01T03:27:50.270Z,18.70
2018-06-01T03:30:17.820Z,16.93
2018-06-01T03:32:45.369Z,17.33
2018-06-01T03:35:12.913Z,16.60
2018-06-01T03:37:40.465Z,17.30
2018-06-01T03:40:08.794Z,18.20
2018-06-01T03:42:36.351Z,21.40
2018-06-01T03:45:03.929Z,17.97
2018-06-01T03:47:31.487Z,19.13
2018-06-01T03:49:59.013Z,17.40
2018-06-01T03:52:26.558Z,20.40
2018-06-01T03:54:54.096Z,16.17
2018-06-01T03:57:21.653Z,15.70
2018-06-01T03:59:49.962Z,16.20
2018-06-01T04:02:17.507Z,18.23
2018-06-01T04:04:45.041Z,16.40
2018-06-01T04:07:12.613Z,17.17
2018-06-01T04:09:40.141Z,18.03
2018-06-01T04:12:07.688Z,15.90
2018-06-01T04:14:35.218Z,17.03
2018-06-01T04:17:02.789Z,18.40
2018-06-01T04:19:30.325Z,16.67
2018-06-01T04:21:57.860Z,15.93
2018-06-01T04:24:25.461Z,17.97
2018-06-01T04:26:52.976Z,17.80
2018-06-01T04:29:21.302Z,18.23
2018-06-01T04:31:48.833Z,15.97
2018-06-01T04:34:16.376Z,16.27
2018-06-01T04:36:47.936Z,16.33
2018-06-01T04:39:15.501Z,16.97
2018-06-01T04:41:43.031Z,15.63
2018-06-01T04:44:11.354Z,15.40
2018-06-01T04:46:38.884Z,16.73
2018-06-01T04:49:06.437Z,15.63
2018-06-01T04:51:33.969Z,15.53
2018-06-01T04:54:01.520Z,15.97
2018-06-01T04:56:29.061Z,17.83
2018-06-01T04:58:56.651Z,16.20
2018-06-01T05:01:24.960Z,17.47
2018-06-01T05:03:52.508Z,16.10
2018-06-01T05:06:20.058Z,16.43
2018-06-01T05:08:47.636Z,15.80
2018-06-01T05:11:15.187Z,15.03
2018-06-01T05:13:42.737Z,16.53
2018-06-01T05:16:10.272Z,15.97
2018-06-01T05:18:37.821Z,15.77
2018-06-01T05:21:05.388Z,16.97
2018-06-01T05:23:32.949Z,18.07
2018-06-01T05:26:01.266Z,18.33
2018-06-01T05:28:28.816Z,15.33
2018-06-01T05:30:56.346Z,16.03
2018-06-01T05:33:24.658Z,16.27
2018-06-01T05:35:52.193Z,17.17
2018-06-01T05:38:19.724Z,16.87
2018-06-01T05:40:47.293Z,18.73
2018-06-01T05:43:14.824Z,15.37
2018-06-01T05:45:43.340Z,17.80
2018-06-01T05:48:11.637Z,16.80
2018-06-01T05:50:39.185Z,19.93
2018-06-01T05:53:06.754Z,15.87
2018-06-01T05:55:34.316Z,18.17
2018-06-01T05:58:01.867Z,18.70
2018-06-01T06:00:29.415Z,17.10
2018-06-01T06:02:56.954Z,16.93
2018-06-01T06:05:25.265Z,17.07
2018-06-01T06:07:52.795Z,22.10
2018-06-01T06:10:21.112Z,15.97
2018-06-01T06:12:48.644Z,15.60
2018-06-01T06:15:16.194Z,14.43
2018-06-01T06:17:44.532Z,19.43
2018-06-01T06:20:12.077Z,15.40
2018-06-01T06:22:39.605Z,19.60
2018-06-01T06:25:07.155Z,15.17
2018-06-01T06:27:34.689Z,15.40
2018-06-01T06:30:02.256Z,15.17
2018-06-01T06:32:29.782Z,17.13
2018-06-01T06:34:57.337Z,14.50
2018-06-01T06:37:24.866Z,15.30
2018-06-01T06:39:52.412Z,20.17
2018-06-01T06:42:19.940Z,16.93
2018-06-01T06:44:48.252Z,15.00
2018-06-01T06:47:15.784Z,15.50
2018-06-01T06:49:44.113Z,14.53
2018-06-01T06:52:11.656Z,14.63
2018-06-01T06:54:39.190Z,14.53
2018-06-01T06:57:06.741Z,16.50
2018-06-01T06:59:34.281Z,14.45
2018-06-01T07:02:02.593Z,14.07
2018-06-01T07:04:30.129Z,13.10
2018-06-01T07:06:57.693Z,15.77
2018-06-01T07:09:25.220Z,17.60
2018-06-01T07:11:52.774Z,14.73
2018-06-01T07:14:20.301Z,15.50
2018-06-01T07:16:47.851Z,17.60
2018-06-01T07:19:15.380Z,18.13
2018-06-01T07:21:42.932Z,14.25
2018-06-01T07:24:11.255Z,13.25
2018-06-01T07:26:38.815Z,19.73
2018-06-01T07:29:06.351Z,13.02
2018-06-01T07:31:33.906Z,13.45
2018-06-01T07:34:01.442Z,15.32
2018-06-01T07:36:29.833Z,17.75
2018-06-01T07:38:57.379Z,14.05
2018-06-01T07:41:24.929Z,13.88
2018-06-01T07:43:52.470Z,18.15
2018-06-01T07:46:20.035Z,11.98
2018-06-01T07:48:47.559Z,15.18
2018-06-01T07:51:15.114Z,13.57
2018-06-01T07:53:42.653Z,12.35
2018-06-01T07:56:10.209Z,12.43
2018-06-01T07:58:37.736Z,17.37
2018-06-01T08:01:06.058Z,16.02
2018-06-01T08:03:33.636Z,12.90
2018-06-01T08:06:01.181Z,14.07
2018-06-01T08:08:28.898Z,14.98
2018-06-01T08:10:57.412Z,14.23
2018-06-01T08:13:24.957Z,11.90
2018-06-01T08:15:52.489Z,17.37
2018-06-01T08:18:20.799Z,14.32
2018-06-01T08:20:49.244Z,11.43
2018-06-01T08:23:17.558Z,11.70
2018-06-01T08:25:45.081Z,11.95
2018-06-01T08:28:14.001Z,11.38
2018-06-01T08:30:41.564Z,16.30
2018-06-01T08:33:09.120Z,12.20
2018-06-01T08:35:36.662Z,13.27
2018-06-01T08:38:04.389Z,13.60
2018-06-01T08:40:31.917Z,10.13
2018-06-01T08:42:59.469Z,14.35
2018-06-01T08:45:27.001Z,18.55
2018-06-01T08:47:54.552Z,11.57
2018-06-01T08:50:22.086Z,12.60
2018-06-01T08:52:50.409Z,13.35
2018-06-01T08:55:17.953Z,13.32
2018-06-01T08:57:45.517Z,12.15
2018-06-01T09:00:13.049Z,12.70
2018-06-01T09:02:41.369Z,11.85
2018-06-01T09:05:09.682Z,12.75
2018-06-01T09:07:37.224Z,13.65
2018-06-01T09:10:04.812Z,12.30
2018-06-01T09:12:32.327Z,16.58
2018-06-01T09:14:59.852Z,13.88
2018-06-01T09:17:27.400Z,12.88
2018-06-01T09:19:54.941Z,14.70
2018-06-01T09:22:23.262Z,12.80
2018-06-01T09:24:50.798Z,14.07
2018-06-01T09:27:18.334Z,13.80
2018-06-01T09:29:45.881Z,14.48
2018-06-01T09:32:14.200Z,14.18
2018-06-01T09:34:41.765Z,12.73
2018-06-01T09:37:09.298Z,16.62
2018-06-01T09:39:37.604Z,18.50
2018-06-01T09:42:05.137Z,13.43
2018-06-01T09:44:32.702Z,15.35
2018-06-01T09:47:00.237Z,14.00
2018-06-01T09:49:27.809Z,14.27
2018-06-01T09:51:55.349Z,13.85
2018-06-01T09:54:22.940Z,14.90
2018-06-01T09:56:50.480Z,17.00
2018-06-01T09:59:18.800Z,13.75
2018-06-01T10:01:46.329Z,14.05
2018-06-01T10:04:13.888Z,13.93
2018-06-01T10:06:41.424Z,15.55
2018-06-01T10:09:09.861Z,18.12
2018-06-01T10:11:37.406Z,13.32
2018-06-01T10:14:04.969Z,18.23
2018-06-01T10:16:32.510Z,16.12
2018-06-01T10:19:00.136Z,17.12
2018-06-01T10:21:28.436Z,16.42
2018-06-01T10:23:56.020Z,16.90
2018-06-01T10:26:23.592Z,17.67
2018-06-01T10:28:51.124Z,17.92
2018-06-01T10:31:18.672Z,21.87
2018-06-01T10:33:46.207Z,18.73
2018-06-01T10:36:14.527Z,23.17
2018-06-01T10:38:42.058Z,27.08
2018-06-01T10:41:09.606Z,17.23
2018-06-01T10:43:37.900Z,18.55
2018-06-01T10:46:06.217Z,19.05
2018-06-01T10:48:33.753Z,17.90
2018-06-01T10:51:01.297Z,17.50
2018-06-01T10:53:28.823Z,17.30
2018-06-01T10:55:56.376Z,17.15
2018-06-01T10:58:23.908Z,17.15
2018-06-01T11:00:51.505Z,15.27
2018-06-01T11:03:19.807Z,16.23
2018-06-01T11:05:47.347Z,22.58
2018-06-01T11:08:14.884Z,15.43
2018-06-01T11:10:42.440Z,17.55
2018-06-01T11:13:10.750Z,14.55
2018-06-01T11:15:38.328Z,15.88
2018-06-01T11:18:06.005Z,20.30
2018-06-01T11:20:33.557Z,17.62
2018-06-01T11:23:01.106Z,13.00
2018-06-01T11:25:28.665Z,16.05
2018-06-01T11:27:56.205Z,14.45
2018-06-01T11:30:24.551Z,12.10
2018-06-01T11:32:52.867Z,14.65
2018-06-01T11:35:20.416Z,11.68
2018-06-01T11:37:47.948Z,11.57
2018-06-01T11:40:15.501Z,14.93
2018-06-01T11:42:43.048Z,12.23
2018-06-01T11:45:10.593Z,10.25
2018-06-01T11:47:38.144Z,11.98
2018-06-01T11:50:05.688Z,12.70
2018-06-01T11:52:34.136Z,13.27
2018-06-01T11:55:01.673Z,11.90
2018-06-01T11:57:29.990Z,14.40
2018-06-01T11:59:57.520Z,15.05
2018-06-01T12:02:25.062Z,11.85
2018-06-01T12:04:52.584Z,10.63
2018-06-01T12:07:20.133Z,9.60
2018-06-01T12:09:47.678Z,12.98
2018-06-01T12:12:15.243Z,11.32
2018-06-01T12:14:42.788Z,13.73
2018-06-01T12:17:10.345Z,9.00
2018-06-01T12:19:37.877Z,11.63
2018-06-01T12:22:05.427Z,9.02
2018-06-01T12:24:33.732Z,8.95
2018-06-01T12:27:01.290Z,7.72
2018-06-01T12:29:28.872Z,8.35
2018-06-01T12:31:56.376Z,8.25
2018-06-01T12:34:23.905Z,10.85
2018-06-01T12:36:51.462Z,9.43
2018-06-01T12:39:18.990Z,10.55
2018-06-01T12:41:46.532Z,13.00
2018-06-01T12:44:14.061Z,8.70
2018-06-01T12:46:41.606Z,11.98
2018-06-01T12:49:09.136Z,11.75
2018-06-01T12:51:44.021Z,8.73
2018-06-01T12:54:12.322Z,11.32
2018-06-01T12:56:39.873Z,10.43
2018-06-01T12:59:08.194Z,12.00
2018-06-01T13:01:35.757Z,12.13
2018-06-01T13:04:03.301Z,10.60
2018-06-01T13:06:30.833Z,9.23
2018-06-01T13:08:58.439Z,8.98
2018-06-01T13:11:25.926Z,8.60
2018-06-01T13:13:54.236Z,8.80
2018-06-01T13:16:21.771Z,14.68
2018-06-01T13:18:49.317Z,11.63
2018-06-01T13:21:17.617Z,10.88
2018-06-01T13:23:45.164Z,8.00
2018-06-01T13:26:12.693Z,9.02
2018-06-01T13:28:40.240Z,10.07
2018-06-01T13:31:07.769Z,9.88
2018-06-01T13:33:35.327Z,10.80
2018-06-01T13:36:02.898Z,10.75
2018-06-01T13:38:30.471Z,9.95
2018-06-01T13:40:58.052Z,11.15
2018-06-01T13:43:25.603Z,10.50
2018-06-01T13:45:53.913Z,8.98
2018-06-01T13:48:21.458Z,9.05
2018-06-01T13:50:49.000Z,10.38
2018-06-01T13:53:16.552Z,9.52
2018-06-01T13:55:44.171Z,8.63
2018-06-01T13:58:11.709Z,9.50
2018-06-01T14:00:39.324Z,11.90
2018-06-01T14:03:06.818Z,12.95
2018-06-01T14:05:34.351Z,13.50
2018-06-01T14:08:01.895Z,10.27
2018-06-01T14:10:29.430Z,8.13
2018-06-01T14:12:56.988Z,11.02
2018-06-01T14:15:24.526Z,11.80
2018-06-01T14:17:52.097Z,12.07
2018-06-01T14:20:19.644Z,9.27
2018-06-01T14:22:47.726Z,9.73
2018-06-01T14:25:15.276Z,10.32
2018-06-01T14:27:42.809Z,12.10
2018-06-01T14:30:10.369Z,8.90
2018-06-01T14:32:37.893Z,9.18
2018-06-01T14:35:05.469Z,9.73
2018-06-01T14:37:32.992Z,14.00
2018-06-01T14:40:00.561Z,10.45
2018-06-01T14:42:28.097Z,10.18
2018-06-01T14:44:55.652Z,15.05
2018-06-01T14:47:23.200Z,10.40
2018-06-01T14:49:50.745Z,12.80
2018-06-01T14:52:18.278Z,11.68
2018-06-01T14:54:45.893Z,9.88
2018-06-01T14:57:13.433Z,11.40
2018-06-01T14:59:40.981Z,11.45
2018-06-01T15:02:08.510Z,13.95
2018-06-01T15:04:36.822Z,11.20
2018-06-01T15:07:04.364Z,14.77
2018-06-01T15:09:31.914Z,12.80
2018-06-01T15:11:59.446Z,11.82
2018-06-01T15:14:27.005Z,12.68
2018-06-01T15:16:54.528Z,9.75
2018-06-01T15:19:22.073Z,10.68
2018-06-01T15:21:49.599Z,9.70
2018-06-01T15:24:17.150Z,9.45
2018-06-01T15:26:45.445Z,10.65
2018-06-01T15:29:13.016Z,14.20
2018-06-01T15:31:40.545Z,10.45
2018-06-01T15:34:08.077Z,11.82
2018-06-01T15:36:35.620Z,9.30
2018-06-01T15:39:03.161Z,9.82
2018-06-01T15:41:30.711Z,12.80
2018-06-01T15:43:58.241Z,12.10
2018-06-01T15:46:25.805Z,11.30
2018-06-01T15:48:53.337Z,9.20
2018-06-01T15:51:20.881Z,9.80
2018-06-01T15:53:48.458Z,9.45
2018-06-01T15:56:16.021Z,11.40
2018-06-01T15:58:43.570Z,9.25
2018-06-01T16:01:11.117Z,12.80
2018-06-01T16:03:38.648Z,9.07
2018-06-01T16:06:06.196Z,14.57
2018-06-01T16:08:33.724Z,11.12
2018-06-01T16:11:01.268Z,10.93
2018-06-01T16:13:29.557Z,9.45
2018-06-01T16:15:57.874Z,9.32
2018-06-01T16:18:25.425Z,9.32
2018-06-01T16:20:53.025Z,10.85
2018-06-01T16:23:20.591Z,8.70
2018-06-01T16:25:48.910Z,10.00
2018-06-01T16:28:16.435Z,5.72
2018-06-01T16:30:43.993Z,5.82
2018-06-01T16:33:12.284Z,7.85
2018-06-01T16:35:39.824Z,5.55
2018-06-01T16:38:08.120Z,4.70
2018-06-01T16:40:36.364Z,8.90
2018-06-01T16:43:03.884Z,7.00
2018-06-01T16:45:31.453Z,7.87
2018-06-01T16:47:58.981Z,8.00
2018-06-01T16:50:26.510Z,9.80
2018-06-01T16:52:54.056Z,14.27
2018-06-01T16:55:21.593Z,10.40
2018-06-01T16:57:49.165Z,12.68
2018-06-01T17:00:16.713Z,12.52
2018-06-01T17:02:44.268Z,12.97
2018-06-01T17:05:11.813Z,15.17
2018-06-01T17:07:40.180Z,11.80
2018-06-01T17:10:07.730Z,14.20
2018-06-01T17:12:35.285Z,15.77
2018-06-01T17:15:02.823Z,12.90
2018-06-01T17:17:30.370Z,16.00
2018-06-01T17:19:58.728Z,19.73
2018-06-01T17:22:27.085Z,14.00
2018-06-01T17:24:54.620Z,16.30
2018-06-01T17:27:22.174Z,13.40
2018-06-01T17:29:49.704Z,15.97
2018-06-01T17:32:18.015Z,14.97
2018-06-01T17:34:45.552Z,18.20
2018-06-01T17:37:13.093Z,17.27
2018-06-01T17:39:40.625Z,15.47
2018-06-01T17:42:08.181Z,21.57
2018-06-01T17:44:35.710Z,17.80
2018-06-01T17:47:03.265Z,17.47
2018-06-01T17:49:30.810Z,20.33
2018-06-01T17:51:58.362Z,18.63
2018-06-01T17:54:25.889Z,16.63
2018-06-01T17:56:54.232Z,16.97
2018-06-01T17:59:21.766Z,18.50
2018-06-01T18:01:49.308Z,23.60
2018-06-01T18:04:16.856Z,22.57
2018-06-01T18:06:45.225Z,22.57
2018-06-01T18:09:12.738Z,21.43
2018-06-01T18:11:40.266Z,17.20
2018-06-01T18:14:07.810Z,20.90
2018-06-01T18:16:35.345Z,17.40
2018-06-01T18:19:02.889Z,20.63
2018-06-01T18:21:30.424Z,22.20
2018-06-01T18:23:58.996Z,17.27
2018-06-01T18:26:26.531Z,20.13
2018-06-01T18:28:54.071Z,18.50
2018-06-01T18:31:22.364Z,18.97
2018-06-01T18:33:49.932Z,19.70
2018-06-01T18:36:17.670Z,20.77
2018-06-01T18:38:45.222Z,24.90
2018-06-01T18:41:13.539Z,18.53
2018-06-01T18:43:41.105Z,16.27
2018-06-01T18:46:08.643Z,21.90
2018-06-01T18:48:36.216Z,19.37
2018-06-01T18:51:03.740Z,21.40
2018-06-01T18:53:32.074Z,22.20
2018-06-01T18:55:59.600Z,23.00
2018-06-01T18:58:27.145Z,21.50
2018-06-01T19:00:54.680Z,21.30
2018-06-01T19:03:22.233Z,20.03
2018-06-01T19:05:49.784Z,20.53
2018-06-01T19:08:17.332Z,20.43
2018-06-01T19:10:44.861Z,20.60
2018-06-01T19:13:12.424Z,21.03
2018-06-01T19:15:39.953Z,25.23
2018-06-01T19:18:07.498Z,24.23
2018-06-01T19:20:35.067Z,19.93
2018-06-01T19:23:02.613Z,23.50
2018-06-01T19:25:30.946Z,27.70
2018-06-01T19:28:08.162Z,22.73
2018-06-01T19:30:35.737Z,26.70
2018-06-01T19:33:04.201Z,19.23
2018-06-01T19:35:31.779Z,20.90
2018-06-01T19:38:00.090Z,20.37
2018-06-01T19:40:27.832Z,21.37
2018-06-01T19:42:56.849Z,18.60
2018-06-01T19:45:24.400Z,19.57
2018-06-01T19:47:51.933Z,21.13
2018-06-01T19:50:19.488Z,21.30
2018-06-01T19:52:47.046Z,18.63
2018-06-01T19:55:14.612Z,19.60
2018-06-01T19:57:42.141Z,18.77
2018-06-01T20:00:09.693Z,24.53
2018-06-01T20:02:37.232Z,19.80
2018-06-01T20:05:04.785Z,21.90
2018-06-01T20:07:32.321Z,21.77
2018-06-01T20:09:59.880Z,23.03
2018-06-01T20:12:27.413Z,21.60
2018-06-01T20:14:54.961Z,20.83
2018-06-01T20:17:23.260Z,22.97
2018-06-01T20:19:50.825Z,22.17
2018-06-01T20:22:19.148Z,21.87
2018-06-01T20:24:46.694Z,22.77
2018-06-01T20:27:14.241Z,23.03
2018-06-01T20:29:41.822Z,22.70
2018-06-01T20:32:09.356Z,25.83
2018-06-01T20:34:36.911Z,23.20
2018-06-01T20:37:04.459Z,25.73
2018-06-01T20:39:32.044Z,26.33
2018-06-01T20:41:59.588Z,25.73
2018-06-01T20:44:27.129Z,21.30
2018-06-01T20:46:54.691Z,23.27
2018-06-01T20:49:22.989Z,24.13
2018-06-01T20:51:50.544Z,23.97
2018-06-01T20:54:18.160Z,25.23
2018-06-01T20:56:46.649Z,24.03
2018-06-01T20:59:14.387Z,26.53
2018-06-01T21:01:41.944Z,24.33
2018-06-01T21:04:10.247Z,23.70
2018-06-01T21:06:37.802Z,25.03
2018-06-01T21:09:06.138Z,24.53
2018-06-01T21:11:33.885Z,25.03
2018-06-01T21:14:01.421Z,26.33
2018-06-01T21:16:29.060Z,26.37
2018-06-01T21:18:56.598Z,36.23
2018-06-01T21:21:24.930Z,34.90
2018-06-01T21:23:52.467Z,32.23
2018-06-01T21:26:20.023Z,49.80
2018-06-01T21:28:47.561Z,78.13
2018-06-01T21:31:15.113Z,36.13
2018-06-01T21:33:43.405Z,25.10
2018-06-01T21:36:11.149Z,26.17
2018-06-01T21:38:38.699Z,24.47
2018-06-01T21:41:07.019Z,27.20
2018-06-01T21:43:34.571Z,24.17
2018-06-01T21:46:02.206Z,26.33
2018-06-01T21:48:29.727Z,25.30
2018-06-01T21:50:57.312Z,24.83
2018-06-01T21:53:25.618Z,24.57
2018-06-01T21:55:53.161Z,26.20
2018-06-01T21:58:20.725Z,27.37
2018-06-01T22:00:48.258Z,28.90
2018-06-01T22:03:16.576Z,27.20
2018-06-01T22:05:44.112Z,26.10
2018-06-01T22:08:11.652Z,27.67
2018-06-01T22:10:39.184Z,27.17
2018-06-01T22:13:06.733Z,23.70
2018-06-01T22:15:34.271Z,28.13
2018-06-01T22:18:01.833Z,27.70
2018-06-01T22:20:29.375Z,27.90
2018-06-01T22:22:57.688Z,26.63
2018-06-01T22:25:25.224Z,26.03
2018-06-01T22:27:52.774Z,31.20
2018-06-01T22:30:21.125Z,36.87
2018-06-01T22:32:48.673Z,43.17
2018-06-01T22:35:16.204Z,37.40
2018-06-01T22:37:43.760Z,29.30
2018-06-01T22:40:11.301Z,28.20
2018-06-01T22:42:38.849Z,27.13
2018-06-01T22:45:06.392Z,27.83
2018-06-01T22:47:33.947Z,28.33
2018-06-01T22:50:01.502Z,26.53
2018-06-01T22:52:29.048Z,25.10
2018-06-01T22:54:56.580Z,25.17
2018-06-01T22:57:24.918Z,24.40
2018-06-01T22:59:52.479Z,24.33
2018-06-01T23:02:20.032Z,27.70
2018-06-01T23:04:47.580Z,25.23
2018-06-01T23:07:15.909Z,23.77
2018-06-01T23:09:44.228Z,24.13
2018-06-01T23:12:11.763Z,24.20
2018-06-01T23:14:39.391Z,24.33
2018-06-01T23:17:06.898Z,23.43
2018-06-01T23:19:34.452Z,25.53
2018-06-01T23:22:01.993Z,24.40
2018-06-01T23:24:30.304Z,24.77
2018-06-01T23:26:58.607Z,23.47
2018-06-01T23:29:26.158Z,23.63
2018-06-01T23:31:53.698Z,23.23
2018-06-01T23:34:29.114Z,23.93
2018-06-01T23:36:56.662Z,23.67
2018-06-01T23:39:24.254Z,22.20
2018-06-01T23:41:51.804Z,24.00
2018-06-01T23:44:19.795Z,21.63
2018-06-01T23:46:47.378Z,22.63
2018-06-01T23:49:14.960Z,22.00
2018-06-01T23:51:43.310Z,24.77
2018-06-01T23:54:10.865Z,21.37
2018-06-01T23:56:39.011Z,23.00
2018-06-01T23:59:06.845Z,22.07
